createdAt,value
2022-08-20T00:00:43.109Z,101699.56
2022-08-20T00:03:18.257Z,101696.03
2022-08-20T00:05:56.008Z,101695.16
2022-08-20T00:08:31.076Z,101702.22
2022-08-20T00:11:02.375Z,101708.41
2022-08-20T00:13:38.495Z,101709.28
2022-08-20T00:16:09.411Z,101709.28
2022-08-20T00:18:39.485Z,101703.09
2022-08-20T00:21:11.710Z,101709.28
2022-08-20T00:23:53.806Z,101709.28
2022-08-20T00:26:25.323Z,101710.16
2022-08-20T00:28:55.634Z,101714.56
2022-08-20T00:31:28.002Z,101711.06
2022-08-20T00:33:58.214Z,101715.50
2022-08-20T00:36:32.353Z,101708.41
2022-08-20T00:39:11.175Z,101711.97
2022-08-20T00:41:41.102Z,101712.00
2022-08-20T00:44:17.182Z,101718.16
2022-08-20T00:46:48.333Z,101711.97
2022-08-20T00:49:24.975Z,101722.59
2022-08-20T00:52:01.165Z,101723.50
2022-08-20T00:54:43.062Z,101722.59
2022-08-20T00:57:19.489Z,101715.53
2022-08-20T00:59:53.203Z,101722.63
2022-08-20T01:02:28.775Z,101718.19
2022-08-20T01:05:01.314Z,101716.44
2022-08-20T01:07:41.235Z,101712.03
2022-08-20T01:10:19.350Z,101708.50
2022-08-20T01:12:59.084Z,101721.78
2022-08-20T01:15:34.778Z,101717.41
2022-08-20T01:18:05.697Z,101723.63
2022-08-20T01:20:43.778Z,101726.31
2022-08-20T01:23:36.179Z,101723.66
2022-08-20T01:26:12.326Z,101721.94
2022-08-20T01:28:46.064Z,101724.56
2022-08-20T01:31:18.687Z,101731.66
2022-08-20T01:33:51.428Z,101731.66
2022-08-20T01:36:25.658Z,101731.66
2022-08-20T01:38:55.340Z,101736.94
2022-08-20T01:41:50.138Z,101726.34
2022-08-20T01:44:21.161Z,101725.47
2022-08-20T01:46:52.713Z,101733.44
2022-08-20T01:49:29.950Z,101728.13
2022-08-20T01:52:05.805Z,101735.19
2022-08-20T01:54:36.865Z,101736.09
2022-08-20T01:57:15.626Z,101750.22
2022-08-20T01:59:47.006Z,101746.69
2022-08-20T02:02:17.083Z,101744.03
2022-08-20T02:04:47.207Z,101754.66
2022-08-20T02:07:20.614Z,101744.03
2022-08-20T02:09:53.547Z,101750.22
2022-08-20T02:12:27.003Z,101752.88
2022-08-20T02:14:57.937Z,101755.53
2022-08-20T02:17:32.757Z,101758.19
2022-08-20T02:20:08.963Z,101752.00
2022-08-20T02:22:49.283Z,101751.13
2022-08-20T02:25:23.067Z,101748.47
2022-08-20T02:27:57.145Z,101742.28
2022-08-20T02:30:35.613Z,101751.09
2022-08-20T02:33:08.090Z,101744.03
2022-08-20T02:35:39.255Z,101749.34
2022-08-20T02:38:13.025Z,101745.81
2022-08-20T02:40:44.302Z,101748.44
2022-08-20T02:43:18.941Z,101759.94
2022-08-20T02:45:48.739Z,101760.81
2022-08-20T02:48:25.427Z,101761.69
2022-08-20T02:51:05.166Z,101757.28
2022-08-20T02:53:41.295Z,101746.69
2022-08-20T02:56:12.868Z,101756.41
2022-08-20T02:58:46.886Z,101751.09
2022-08-20T03:01:19.022Z,101750.19
2022-08-20T03:03:49.987Z,101749.31
2022-08-20T03:06:22.114Z,101752.84
2022-08-20T03:08:52.344Z,101751.94
2022-08-20T03:11:22.443Z,101755.47
2022-08-20T03:13:55.155Z,101760.75
2022-08-20T03:16:29.938Z,101758.97
2022-08-20T03:19:02.333Z,101752.75
2022-08-20T03:21:32.227Z,101743.91
2022-08-20T03:24:06.441Z,101762.44
2022-08-20T03:26:36.443Z,101752.69
2022-08-20T03:29:08.889Z,101755.34
2022-08-20T03:31:39.492Z,101762.38
2022-08-20T03:34:09.436Z,101765.88
2022-08-20T03:36:39.512Z,101760.56
2022-08-20T03:39:13.364Z,101767.59
2022-08-20T03:41:43.236Z,101764.91
2022-08-20T03:44:15.809Z,101764.88
2022-08-20T03:46:45.859Z,101764.84
2022-08-20T03:49:17.174Z,101768.34
2022-08-20T03:51:57.488Z,101765.66
2022-08-20T03:54:31.985Z,101763.88
2022-08-20T03:57:13.013Z,101761.19
2022-08-20T03:59:49.874Z,101757.63
2022-08-20T04:02:30.656Z,101756.69
2022-08-20T04:05:01.308Z,101767.22
2022-08-20T04:07:31.420Z,101766.28
2022-08-20T04:10:01.084Z,101768.91
2022-08-20T04:12:35.984Z,101773.28
2022-08-20T04:15:15.661Z,101768.84
2022-08-20T04:17:53.632Z,101769.69
2022-08-20T04:20:26.870Z,101777.59
2022-08-20T04:23:01.695Z,101772.28
2022-08-20T04:25:40.728Z,101776.63
2022-08-20T04:28:15.821Z,101775.72
2022-08-20T04:30:52.057Z,101780.09
2022-08-20T04:33:34.196Z,101785.38
2022-08-20T04:36:07.765Z,101779.19
2022-08-20T04:38:50.045Z,101786.22
2022-08-20T04:41:23.637Z,101788.81
2022-08-20T04:43:56.019Z,101788.78
2022-08-20T04:46:35.159Z,101789.66
2022-08-20T04:49:05.622Z,101794.03
2022-08-20T04:51:36.191Z,101798.38
2022-08-20T04:54:08.942Z,101808.06
2022-08-20T04:56:41.724Z,101801.88
2022-08-20T04:59:14.379Z,101806.25
2022-08-20T05:01:47.493Z,101804.47
2022-08-20T05:04:20.269Z,101806.19
2022-08-20T05:06:51.410Z,101811.47
2022-08-20T05:09:22.051Z,101807.94
2022-08-20T05:11:52.974Z,101813.22
2022-08-20T05:14:23.607Z,101813.25
2022-08-20T05:16:57.635Z,101813.25
2022-08-20T05:19:29.434Z,101822.09
2022-08-20T05:22:01.002Z,101823.88
2022-08-20T05:24:31.376Z,101824.78
2022-08-20T05:27:05.598Z,101832.75
2022-08-20T05:29:39.142Z,101832.84
2022-08-20T05:32:12.509Z,101834.66
2022-08-20T05:34:43.436Z,101841.78
2022-08-20T05:37:13.270Z,101831.25
2022-08-20T05:39:44.213Z,101827.88
2022-08-20T05:42:14.244Z,101835.03
2022-08-20T05:44:44.163Z,101840.50
2022-08-20T05:47:18.626Z,101842.41
2022-08-20T05:49:49.240Z,101838.13
2022-08-20T05:52:19.069Z,101846.19
2022-08-20T05:54:48.790Z,101842.78
2022-08-20T05:57:21.095Z,101838.47
2022-08-20T05:59:50.912Z,101847.38
2022-08-20T06:02:35.804Z,101849.19
2022-08-20T06:05:05.560Z,101849.22
2022-08-20T06:07:38.914Z,101850.13
2022-08-20T06:10:11.569Z,101845.72
2022-08-20T06:12:44.549Z,101850.13
2022-08-20T06:15:15.775Z,101853.59
2022-08-20T06:17:58.334Z,101850.91
2022-08-20T06:20:29.832Z,101851.75
2022-08-20T06:23:01.304Z,101850.75
2022-08-20T06:25:37.989Z,101849.75
2022-08-20T06:28:09.105Z,101848.75
2022-08-20T06:30:40.293Z,101848.69
2022-08-20T06:33:12.620Z,101843.19
2022-08-20T06:35:43.315Z,101847.44
2022-08-20T06:38:14.966Z,101850.84
2022-08-20T06:40:45.235Z,101847.94
2022-08-20T06:43:15.089Z,101846.88
2022-08-20T06:45:44.992Z,101859.09
2022-08-20T06:48:20.051Z,101850.03
2022-08-20T06:50:50.333Z,101857.84
2022-08-20T06:53:24.296Z,101854.97
2022-08-20T06:56:00.300Z,101852.97
2022-08-20T06:58:37.582Z,101860.94
2022-08-20T07:01:10.308Z,101866.41
2022-08-20T07:03:55.630Z,101862.53
2022-08-20T07:06:39.868Z,101858.66
2022-08-20T07:09:09.947Z,101866.44
2022-08-20T07:11:39.723Z,101874.84
2022-08-20T07:17:36.101Z,101866.34
2022-08-20T07:20:25.491Z,101874.94
2022-08-20T07:23:08.052Z,101871.84
2022-08-20T07:25:44.722Z,101874.19
2022-08-20T07:28:32.609Z,101885.56
2022-08-20T07:31:21.886Z,101877.50
2022-08-20T07:33:52.767Z,101878.50
2022-08-20T07:36:32.158Z,101877.44
2022-08-20T07:39:06.654Z,101882.78
2022-08-20T07:41:39.249Z,101879.44
2022-08-20T07:44:09.221Z,101882.06
2022-08-20T07:46:41.827Z,101877.84
2022-08-20T07:49:14.049Z,101886.63
2022-08-20T07:51:48.343Z,101883.69
2022-08-20T07:54:18.903Z,101879.97
2022-08-20T07:56:52.304Z,101881.56
2022-08-20T07:59:22.669Z,101886.75
2022-08-20T08:01:52.538Z,101880.56
2022-08-20T08:04:23.347Z,101886.41
2022-08-20T08:07:03.456Z,101890.16
2022-08-20T08:09:49.895Z,101897.56
2022-08-20T08:12:21.042Z,101903.69
2022-08-20T08:14:56.411Z,101896.53
2022-08-20T08:17:36.693Z,101893.94
2022-08-20T08:20:09.731Z,101903.84
2022-08-20T08:22:43.194Z,101905.00
2022-08-20T08:25:17.153Z,101902.47
2022-08-20T08:27:49.209Z,101899.81
2022-08-20T08:30:19.776Z,101904.16
2022-08-20T08:33:06.205Z,101902.53
2022-08-20T08:35:36.097Z,101899.06
2022-08-20T08:38:14.252Z,101896.09
2022-08-20T08:40:44.691Z,101899.91
2022-08-20T08:43:21.422Z,101901.56
2022-08-20T08:46:02.565Z,101907.38
2022-08-20T08:48:45.594Z,101897.13
2022-08-20T08:51:18.499Z,101905.19
2022-08-20T08:53:55.882Z,101913.19
2022-08-20T08:56:32.346Z,101909.41
2022-08-20T08:59:11.878Z,101900.84
2022-08-20T09:01:55.424Z,101903.84
2022-08-20T09:04:32.371Z,101904.94
2022-08-20T09:07:18.891Z,101900.19
2022-08-20T09:09:51.628Z,101908.09
2022-08-20T09:12:23.893Z,101897.00
2022-08-20T09:15:45.883Z,101897.84
2022-08-20T09:21:51.754Z,101894.50
2022-08-20T09:24:26.920Z,101895.25
2022-08-20T09:27:02.866Z,101898.66
2022-08-20T09:29:37.876Z,101897.00
2022-08-20T09:32:10.762Z,101893.75
2022-08-20T09:34:42.115Z,101898.66
2022-08-20T09:37:12.290Z,101905.31
2022-08-20T09:39:43.558Z,101899.94
2022-08-20T09:42:31.253Z,101909.47
2022-08-20T09:45:05.692Z,101905.63
2022-08-20T09:47:54.854Z,101907.84
2022-08-20T09:50:27.105Z,101899.28
2022-08-20T09:53:00.821Z,101903.31
2022-08-20T09:55:52.046Z,101907.47
2022-08-20T09:58:36.268Z,101907.09
2022-08-20T10:01:15.187Z,101897.78
2022-08-20T10:03:45.519Z,101892.53
2022-08-20T10:06:18.962Z,101898.25
2022-08-20T10:09:28.113Z,101891.66
2022-08-20T10:20:15.220Z,101894.22
2022-08-20T10:22:56.502Z,101896.97
2022-08-20T10:25:31.252Z,101890.97
2022-08-20T10:28:01.283Z,101889.72
2022-08-20T10:30:38.993Z,101895.53
2022-08-20T10:33:11.660Z,101880.28
2022-08-20T10:35:41.552Z,101889.56
2022-08-20T10:38:17.932Z,101887.28
2022-08-20T10:40:52.631Z,101882.84
2022-08-20T10:43:22.854Z,101889.53
2022-08-20T10:45:55.269Z,101893.22
2022-08-20T10:48:35.649Z,101892.56
2022-08-20T10:51:05.462Z,101884.78
2022-08-20T10:53:38.215Z,101885.50
2022-08-20T10:56:11.690Z,101888.19
2022-08-20T10:58:44.529Z,101886.38
2022-08-20T11:01:31.383Z,101881.88
2022-08-20T11:04:10.844Z,101880.94
2022-08-20T11:06:42.475Z,101896.34
2022-08-20T11:09:17.590Z,101897.22
2022-08-20T11:11:47.547Z,101890.28
2022-08-20T11:14:20.066Z,101891.56
2022-08-20T11:16:50.071Z,101893.50
2022-08-20T11:19:22.413Z,101882.97
2022-08-20T11:21:52.195Z,101881.78
2022-08-20T11:24:29.509Z,101879.94
2022-08-20T11:27:02.355Z,101881.66
2022-08-20T11:29:34.029Z,101887.66
2022-08-20T11:32:09.547Z,101890.22
2022-08-20T11:34:43.090Z,101888.91
2022-08-20T11:37:13.131Z,101885.94
2022-08-20T11:39:44.600Z,101886.59
2022-08-20T11:42:17.646Z,101881.09
2022-08-20T11:44:47.905Z,101891.94
2022-08-20T11:47:25.395Z,101886.31
2022-08-20T11:50:08.030Z,101891.38
2022-08-20T11:52:42.726Z,101901.16
2022-08-20T11:55:17.232Z,101893.81
2022-08-20T11:57:49.999Z,101906.09
2022-08-20T12:00:32.409Z,101903.56
2022-08-20T12:03:10.379Z,101906.78
2022-08-20T12:05:51.242Z,101904.97
2022-08-20T12:08:27.491Z,101905.00
2022-08-20T12:11:01.888Z,101899.69
2022-08-20T12:13:47.558Z,101900.25
2022-08-20T12:16:18.962Z,101902.03
2022-08-20T12:18:49.195Z,101897.41
2022-08-20T12:21:22.553Z,101897.31
2022-08-20T12:23:52.368Z,101896.75
2022-08-20T12:26:22.010Z,101900.16
2022-08-20T12:28:51.813Z,101906.22
2022-08-20T12:31:21.665Z,101911.22
2022-08-20T12:33:51.852Z,101907.28
2022-08-20T12:36:24.543Z,101906.31
2022-08-20T12:38:54.695Z,101908.44
2022-08-20T12:41:24.771Z,101911.69
2022-08-20T12:43:54.784Z,101917.97
2022-08-20T12:49:36.217Z,101920.31
2022-08-20T12:52:10.345Z,101917.84
2022-08-20T12:54:42.655Z,101923.25
2022-08-20T12:57:16.482Z,101925.03
2022-08-20T12:59:46.600Z,101919.53
2022-08-20T13:02:19.023Z,101918.09
2022-08-20T13:04:49.710Z,101918.97
2022-08-20T13:07:22.376Z,101913.16
2022-08-20T13:09:52.284Z,101923.56
2022-08-20T13:12:22.206Z,101921.66
2022-08-20T13:14:52.438Z,101918.31
2022-08-20T13:17:38.484Z,101915.81
2022-08-20T13:20:12.268Z,101925.63
2022-08-20T13:22:45.470Z,101926.50
2022-08-20T13:25:16.062Z,101930.81
2022-08-20T13:27:47.735Z,101917.19
2022-08-20T13:30:22.930Z,101924.00
2022-08-20T13:32:55.158Z,101919.50
2022-08-20T13:35:25.593Z,101927.88
2022-08-20T13:37:58.027Z,101920.56
2022-08-20T13:40:31.437Z,101924.91
2022-08-20T13:43:06.482Z,101928.03
2022-08-20T13:45:36.957Z,101923.59
2022-08-20T13:48:20.368Z,101927.38
2022-08-20T13:50:50.896Z,101923.63
2022-08-20T13:53:23.763Z,101924.63
2022-08-20T13:55:53.996Z,101927.78
2022-08-20T13:58:24.838Z,101919.09
2022-08-20T14:00:56.950Z,101924.66
2022-08-20T14:03:26.950Z,101918.56
2022-08-20T14:05:57.352Z,101916.00
2022-08-20T14:08:31.641Z,101920.63
2022-08-20T14:11:05.253Z,101925.38
2022-08-20T14:13:40.613Z,101920.22
2022-08-20T14:16:27.141Z,101920.75
2022-08-20T14:19:05.423Z,101921.34
2022-08-20T14:21:38.601Z,101909.88
2022-08-20T14:24:13.275Z,101908.81
2022-08-20T14:26:43.069Z,101915.59
2022-08-20T14:29:12.949Z,101919.75
2022-08-20T14:31:45.703Z,101917.47
2022-08-20T14:34:17.728Z,101913.28
2022-08-20T14:36:52.739Z,101917.50
2022-08-20T14:39:30.668Z,101913.72
2022-08-20T14:42:01.184Z,101906.63
2022-08-20T14:44:32.315Z,101916.34
2022-08-20T14:47:18.826Z,101916.19
2022-08-20T14:49:52.851Z,101916.09
2022-08-20T14:52:37.088Z,101914.78
2022-08-20T14:55:12.830Z,101906.56
2022-08-20T14:57:50.869Z,101902.72
2022-08-20T15:00:51.393Z,101907.38
2022-08-20T15:03:39.471Z,101905.53
2022-08-20T15:06:12.737Z,101902.94
2022-08-20T15:08:53.796Z,101903.56
2022-08-20T15:11:42.504Z,101903.13
2022-08-20T15:14:20.607Z,101900.72
2022-08-20T15:16:55.810Z,101895.16
2022-08-20T15:19:27.422Z,101897.84
2022-08-20T15:22:10.647Z,101908.69
2022-08-20T15:24:44.722Z,101900.44
2022-08-20T15:27:24.049Z,101898.88
2022-08-20T15:30:04.973Z,101904.63
2022-08-20T15:32:37.178Z,101901.56
2022-08-20T15:35:11.586Z,101907.81
2022-08-20T15:37:43.920Z,101906.75
2022-08-20T15:40:23.472Z,101903.13
2022-08-20T15:43:14.115Z,101908.91
2022-08-20T15:45:51.454Z,101914.38
2022-08-20T15:48:24.616Z,101909.72
2022-08-20T15:51:06.148Z,101913.72
2022-08-20T15:53:44.628Z,101909.09
2022-08-20T15:56:31.229Z,101908.00
2022-08-20T15:59:17.082Z,101913.53
2022-08-20T16:01:53.646Z,101908.38
2022-08-20T16:04:55.600Z,101916.34
2022-08-20T16:07:37.869Z,101914.31
2022-08-20T16:10:15.967Z,101920.56
2022-08-20T16:12:52.590Z,101908.66
2022-08-20T16:15:36.969Z,101912.84
2022-08-20T16:18:17.757Z,101916.91
2022-08-20T16:20:51.904Z,101912.31
2022-08-20T16:23:39.103Z,101910.97
2022-08-20T16:26:35.507Z,101912.44
2022-08-20T16:29:13.423Z,101922.09
2022-08-20T16:31:52.784Z,101921.91
2022-08-20T16:35:07.322Z,101917.81
2022-08-20T16:37:48.594Z,101916.97
2022-08-20T16:40:26.008Z,101917.50
2022-08-20T16:43:01.339Z,101918.59
2022-08-20T16:45:51.259Z,101923.84
2022-08-20T16:48:26.445Z,101927.44
2022-08-20T16:51:02.046Z,101918.47
2022-08-20T16:53:34.907Z,101927.72
2022-08-20T16:56:13.682Z,101914.38
2022-08-20T16:58:55.987Z,101922.38
2022-08-20T17:01:36.710Z,101912.66
2022-08-20T17:04:22.305Z,101904.78
2022-08-20T17:06:55.799Z,101911.84
2022-08-20T17:09:44.188Z,101913.63
2022-08-20T17:12:24.310Z,101918.25
2022-08-20T17:14:56.486Z,101910.41
2022-08-20T17:17:30.208Z,101910.72
2022-08-20T17:20:09.230Z,101907.91
2022-08-20T17:22:53.704Z,101906.13
2022-08-20T17:25:34.887Z,101904.25
2022-08-20T17:28:18.909Z,101898.34
2022-08-20T17:30:51.622Z,101903.59
2022-08-20T17:33:29.992Z,101906.28
2022-08-20T17:36:11.587Z,101900.94
2022-08-20T17:38:48.951Z,101902.72
2022-08-20T17:41:24.524Z,101898.41
2022-08-20T17:44:01.696Z,101909.44
2022-08-20T17:46:39.999Z,101900.69
2022-08-20T17:49:12.926Z,101906.97
2022-08-20T17:51:52.212Z,101901.78
2022-08-20T17:54:30.958Z,101907.00
2022-08-20T17:57:07.848Z,101905.38
2022-08-20T18:00:01.042Z,101906.19
2022-08-20T18:02:34.812Z,101899.22
2022-08-20T18:05:05.846Z,101901.84
2022-08-20T18:07:48.856Z,101904.63
2022-08-20T18:10:23.614Z,101913.56
2022-08-20T18:13:05.987Z,101907.31
2022-08-20T18:15:42.252Z,101910.19
2022-08-20T18:18:25.071Z,101919.13
2022-08-20T18:21:25.747Z,101916.59
2022-08-20T18:24:12.471Z,101918.41
2022-08-20T18:26:49.609Z,101925.50
2022-08-20T18:32:28.934Z,101921.97
2022-08-20T18:35:10.834Z,101928.31
2022-08-20T18:37:53.962Z,101926.59
2022-08-20T18:40:41.850Z,101922.16
2022-08-20T18:43:28.283Z,101913.31
2022-08-20T18:46:25.017Z,101908.00
2022-08-20T18:49:08.940Z,101915.13
2022-08-20T18:52:14.464Z,101906.31
2022-08-20T18:54:54.924Z,101909.94
2022-08-20T18:57:41.593Z,101909.06
2022-08-20T19:00:34.050Z,101917.09
2022-08-20T19:03:24.293Z,101918.91
2022-08-20T19:06:16.249Z,101915.38
2022-08-20T19:09:16.772Z,101912.78
2022-08-20T19:12:32.165Z,101911.91
2022-08-20T19:15:11.099Z,101911.91
2022-08-20T19:17:51.652Z,101905.78
2022-08-20T19:20:24.116Z,101908.44
2022-08-20T19:22:56.921Z,101914.63
2022-08-20T19:25:31.504Z,101913.75
2022-08-20T19:28:05.917Z,101904.03
2022-08-20T19:30:47.410Z,101913.78
2022-08-20T19:33:44.326Z,101905.81
2022-08-20T19:36:22.336Z,101913.81
2022-08-20T19:39:03.975Z,101914.69
2022-08-20T19:41:54.179Z,101908.50
2022-08-20T19:44:46.896Z,101912.03
2022-08-20T19:47:28.670Z,101922.66
2022-08-20T19:50:10.829Z,101920.00
2022-08-20T19:52:56.172Z,101909.41
2022-08-20T19:55:42.091Z,101915.59
2022-08-20T19:58:26.017Z,101909.41
2022-08-20T20:00:59.153Z,101909.41
2022-08-20T20:03:37.850Z,101909.38
2022-08-20T20:06:16.707Z,101912.91
2022-08-20T20:08:53.595Z,101906.72
2022-08-20T20:11:31.833Z,101910.25
2022-08-20T20:14:23.683Z,101903.16
2022-08-20T20:16:55.124Z,101906.69
2022-08-20T20:19:36.402Z,101904.03
2022-08-20T20:22:20.008Z,101896.97
2022-08-20T20:25:05.866Z,101903.13
2022-08-20T20:27:40.449Z,101909.31
2022-08-20T20:30:15.635Z,101908.41
2022-08-20T20:32:51.768Z,101903.09
2022-08-20T20:35:35.600Z,101894.25
2022-08-20T20:38:12.277Z,101903.09
2022-08-20T20:40:53.791Z,101895.13
2022-08-20T20:43:30.298Z,101894.22
2022-08-20T20:46:06.530Z,101900.38
2022-08-20T20:48:46.174Z,101888.00
2022-08-20T20:51:25.419Z,101884.44
2022-08-20T20:54:00.468Z,101888.84
2022-08-20T20:57:00.351Z,101877.34
2022-08-20T20:59:35.689Z,101887.03
2022-08-20T21:02:06.351Z,101883.50
2022-08-20T21:04:42.604Z,101887.91
2022-08-20T21:07:18.248Z,101889.66
2022-08-20T21:09:50.195Z,101896.75
2022-08-20T21:12:20.039Z,101888.78
2022-08-20T21:14:51.414Z,101891.41
2022-08-20T21:17:25.896Z,101901.09
2022-08-20T21:19:56.174Z,101894.91
2022-08-20T21:22:29.028Z,101890.47
2022-08-20T21:24:59.026Z,101892.25
2022-08-20T21:27:35.504Z,101893.13
2022-08-20T21:30:09.081Z,101890.47
2022-08-20T21:32:38.900Z,101885.16
2022-08-20T21:35:10.856Z,101889.53
2022-08-20T21:37:43.765Z,101887.75
2022-08-20T21:40:16.193Z,101891.25
2022-08-20T21:42:51.907Z,101887.69
2022-08-20T21:45:28.314Z,101878.84
2022-08-20T21:48:01.108Z,101883.22
2022-08-20T21:50:35.759Z,101881.44
2022-08-20T21:53:12.878Z,101884.06
2022-08-20T21:55:46.430Z,101873.47
2022-08-20T21:58:16.875Z,101876.09
2022-08-20T22:00:54.539Z,101876.97
2022-08-20T22:03:26.313Z,101866.38
2022-08-20T22:06:00.880Z,101873.44
2022-08-20T22:08:38.850Z,101879.59
2022-08-20T22:11:10.921Z,101875.19
2022-08-20T22:13:42.630Z,101877.81
2022-08-20T22:16:15.359Z,101868.06
2022-08-20T22:18:47.773Z,101877.75
2022-08-20T22:21:35.969Z,101872.47
2022-08-20T22:24:13.699Z,101860.16
2022-08-20T22:26:45.278Z,101862.84
2022-08-20T22:29:15.136Z,101861.97
2022-08-20T22:31:46.523Z,101867.22
2022-08-20T22:34:18.664Z,101865.47
2022-08-20T22:36:50.026Z,101861.91
2022-08-20T22:39:22.486Z,101862.78
2022-08-20T22:41:52.413Z,101863.66
2022-08-20T22:44:22.618Z,101860.16
2022-08-20T22:47:05.140Z,101855.72
2022-08-20T22:49:41.715Z,101861.03
2022-08-20T22:52:12.570Z,101862.78
2022-08-20T22:54:45.639Z,101865.44
2022-08-20T22:57:16.378Z,101860.13
2022-08-20T22:59:53.159Z,101861.91
2022-08-20T23:02:24.156Z,101862.78
2022-08-20T23:04:54.168Z,101855.69
2022-08-20T23:07:24.014Z,101856.56
2022-08-20T23:09:56.601Z,101858.34
2022-08-20T23:12:28.611Z,101857.47
2022-08-20T23:15:01.902Z,101861.88
2022-08-20T23:17:35.210Z,101857.47
2022-08-20T23:20:05.807Z,101856.59
2022-08-20T23:22:35.814Z,101844.22
2022-08-20T23:25:10.661Z,101846.00
2022-08-20T23:27:46.605Z,101844.25
2022-08-20T23:30:17.544Z,101844.25
2022-08-20T23:32:47.971Z,101840.75
2022-08-20T23:35:20.948Z,101840.78
2022-08-20T23:37:54.145Z,101835.47
2022-08-20T23:40:30.577Z,101839.88
2022-08-20T23:43:02.084Z,101841.66
2022-08-20T23:45:34.238Z,101838.13
2022-08-20T23:48:06.550Z,101836.34
2022-08-20T23:50:40.800Z,101831.94
2022-08-20T23:53:10.629Z,101835.47
2022-08-20T23:55:44.133Z,101833.69
2022-08-20T23:58:13.738Z,101833.69
